Time;durP1;ratioP1;P1;durP2;ratioP2;P2;SDS_P1;SDS_P2;PMS_P1;PMS_P2;Temp;Humidity;BMP_temperature;BMP_pressure;BME280_temperature;BME280_humidity;BME280_pressure;Samples;Min_cycle;Max_cycle;Signal;HPM_P1;HPM_P2
2021/12/07 00:02:15;;;;;;;2.50;2.00;;;;;;;-2.43;100.00;99323.56;10525151;28;21927;-81
2021/12/07 00:07:18;;;;;;;3.97;1.90;;;;;;;-2.28;100.00;99331.13;10498906;28;20220;-82
2021/12/07 00:12:20;;;;;;;1.70;1.60;;;;;;;-2.14;100.00;99323.25;10507553;28;20258;-83
2021/12/07 00:17:22;;;;;;;1.77;1.50;;;;;;;-2.03;100.00;99321.41;10525760;28;20214;-80
2021/12/07 00:22:25;;;;;;;1.33;1.27;;;;;;;-2.06;100.00;99323.56;10524607;28;20198;-83
2021/12/07 00:27:28;;;;;;;1.53;1.33;;;;;;;-1.95;100.00;99321.72;10541397;28;20805;-82
2021/12/07 00:32:32;;;;;;;1.37;1.27;;;;;;;-2.05;100.00;99313.41;10504634;28;20206;-83
2021/12/07 00:37:35;;;;;;;1.07;1.00;;;;;;;-1.92;100.00;99317.63;10525764;28;20210;-81
2021/12/07 00:42:38;;;;;;;0.80;0.80;;;;;;;-1.99;100.00;99317.88;10524428;28;20199;-81
2021/12/07 00:47:40;;;;;;;0.73;0.70;;;;;;;-1.94;100.00;99309.63;10525011;28;20564;-81
2021/12/07 00:52:43;;;;;;;0.60;0.60;;;;;;;-1.80;100.00;99321.00;10524571;28;20210;-81
2021/12/07 00:57:45;;;;;;;0.90;0.63;;;;;;;-2.01;100.00;99331.06;10528004;28;20214;-81
2021/12/07 01:02:47;;;;;;;0.60;0.60;;;;;;;-1.79;100.00;99340.00;10537475;28;20541;-81
2021/12/07 01:08:16;;;;;;;0.90;0.73;;;;;;;-1.76;100.00;99345.00;10522870;28;20459;-82
2021/12/07 01:29:18;;;;;;;0.73;0.73;;;;;;;-2.24;100.00;99369.94;10530823;28;20507;-82
2021/12/07 01:44:50;;;;;;;1.20;1.10;;;;;;;-2.28;100.00;99397.13;10511273;28;20210;-80
2021/12/07 02:00:39;;;;;;;1.53;1.43;;;;;;;-2.21;100.00;99416.16;10526197;28;20210;-80
2021/12/07 02:05:42;;;;;;;1.90;1.70;;;;;;;-2.19;100.00;99414.00;10532706;28;20214;-79
2021/12/07 02:10:45;;;;;;;3.23;1.97;;;;;;;-2.19;100.00;99430.50;10542368;28;20610;-80
2021/12/07 02:15:48;;;;;;;2.50;2.30;;;;;;;-2.36;100.00;99443.50;10515364;28;20275;-79
2021/12/07 02:20:53;;;;;;;2.33;2.13;;;;;;;-2.34;100.00;99449.59;10530053;28;20195;-79
2021/12/07 02:25:56;;;;;;;2.10;1.90;;;;;;;-2.35;100.00;99458.94;10507207;28;20220;-79
2021/12/07 02:30:58;;;;;;;2.77;2.57;;;;;;;-2.43;100.00;99482.25;10511084;28;20476;-79
2021/12/07 02:36:03;;;;;;;3.67;2.60;;;;;;;-2.57;100.00;99490.03;10525096;28;20215;-83
2021/12/07 02:41:06;;;;;;;3.17;2.60;;;;;;;-2.48;100.00;99491.25;10537387;28;20206;-79
2021/12/07 02:46:09;;;;;;;3.40;3.10;;;;;;;-2.79;100.00;99505.72;10524593;28;20325;-84
2021/12/07 02:51:12;;;;;;;3.37;2.97;;;;;;;-2.70;100.00;99512.44;10550831;28;20476;-79
2021/12/07 02:56:14;;;;;;;3.97;3.43;;;;;;;-2.77;100.00;99512.63;10529092;28;20291;-83
2021/12/07 03:01:23;;;;;;;3.93;3.47;;;;;;;-2.78;100.00;99516.47;10524670;28;20234;-82
2021/12/07 03:06:53;;;;;;;4.70;4.23;;;;;;;-2.76;100.00;99527.22;10521985;28;20259;-83
2021/12/07 03:27:58;;;;;;;7.83;6.43;;;;;;;-2.73;100.00;99559.66;10530499;28;20206;-80
2021/12/07 03:33:03;;;;;;;7.60;6.80;;;;;;;-2.53;100.00;99570.94;10495256;28;20630;-84
2021/12/07 03:38:07;;;;;;;12.37;8.93;;;;;;;-2.36;100.00;99583.78;10514175;28;20226;-81
2021/12/07 03:43:10;;;;;;;11.50;8.63;;;;;;;-2.66;100.00;99587.81;10511081;28;20591;-81
2021/12/07 03:48:14;;;;;;;12.93;9.93;;;;;;;-2.48;100.00;99597.66;10529216;28;20198;-80
2021/12/07 03:53:16;;;;;;;15.33;11.23;;;;;;;-2.49;100.00;99609.75;10532532;28;20243;-84
2021/12/07 03:58:19;;;;;;;12.77;10.27;;;;;;;-2.30;100.00;99607.53;10550873;28;20222;-82
2021/12/07 04:03:22;;;;;;;18.70;12.27;;;;;;;-2.26;100.00;99611.47;10525813;28;20565;-80
2021/12/07 04:08:26;;;;;;;17.97;11.90;;;;;;;-2.25;100.00;99618.63;10535493;28;20287;-83
2021/12/07 04:13:31;;;;;;;22.17;13.67;;;;;;;-2.23;100.00;99630.19;10509424;28;20286;-83
2021/12/07 04:18:34;;;;;;;22.43;14.97;;;;;;;-2.15;100.00;99627.84;10541978;28;20252;-84
2021/12/07 04:23:37;;;;;;;22.63;14.03;;;;;;;-2.06;100.00;99644.72;10525502;28;20607;-84
2021/12/07 04:28:41;;;;;;;22.73;15.03;;;;;;;-1.97;100.00;99640.44;10526052;28;20247;-82
2021/12/07 04:33:43;;;;;;;24.70;15.20;;;;;;;-1.88;100.00;99647.16;10567083;28;20197;-80
2021/12/07 04:38:45;;;;;;;29.50;17.13;;;;;;;-2.08;100.00;99656.00;10568527;28;20214;-83
2021/12/07 04:43:49;;;;;;;29.50;18.03;;;;;;;-1.98;100.00;99652.56;10543138;28;20259;-81
2021/12/07 04:49:42;;;;;;;29.43;18.40;;;;;;;-1.88;100.00;99658.19;10535398;28;20260;-84
2021/12/07 04:59:54;;;;;;;30.97;17.10;;;;;;;-1.92;100.00;99668.03;10549346;28;20530;-79
2021/12/07 05:04:59;;;;;;;26.30;17.20;;;;;;;-1.72;100.00;99682.03;10514387;28;20566;-82
2021/12/07 05:15:17;;;;;;;23.70;16.20;;;;;;;-1.72;100.00;99686.72;10540800;28;20221;-80
2021/12/07 05:41:25;;;;;;;26.10;16.87;;;;;;;-1.36;100.00;99718.28;10536797;28;20198;-84
2021/12/07 05:46:31;;;;;;;30.00;16.70;;;;;;;-1.27;100.00;99733.25;10535114;28;20199;-84
2021/12/07 05:51:33;;;;;;;32.67;16.67;;;;;;;-1.21;100.00;99728.63;10486485;28;20564;-83
2021/12/07 05:56:35;;;;;;;33.77;17.33;;;;;;;-1.03;100.00;99742.88;10497173;28;20223;-84
2021/12/07 06:01:38;;;;;;;34.27;17.10;;;;;;;-1.26;100.00;99754.19;10514265;28;20279;-81
2021/12/07 06:06:40;;;;;;;33.13;15.50;;;;;;;-1.06;100.00;99759.91;10538146;28;20198;-80
2021/12/07 06:11:44;;;;;;;27.60;14.27;;;;;;;-0.92;100.00;99773.28;10524345;28;20500;-83
2021/12/07 06:16:48;;;;;;;25.00;12.63;;;;;;;-0.99;100.00;99790.88;10574381;28;20218;-82
2021/12/07 06:21:50;;;;;;;22.23;11.67;;;;;;;-0.97;100.00;99802.50;10560679;28;20491;-82
2021/12/07 06:26:53;;;;;;;21.07;10.10;;;;;;;-0.85;100.00;99815.28;10555055;28;20198;-81
2021/12/07 06:31:55;;;;;;;23.30;10.13;;;;;;;-0.92;100.00;99817.41;10559463;28;20496;-82
2021/12/07 06:36:57;;;;;;;23.83;10.00;;;;;;;-0.87;100.00;99818.31;10527832;28;20679;-79
2021/12/07 06:42:00;;;;;;;23.33;10.70;;;;;;;-0.85;100.00;99823.56;10514027;28;20255;-84
2021/12/07 06:47:03;;;;;;;26.70;12.00;;;;;;;-0.58;100.00;99818.88;10552334;28;20190;-82
2021/12/07 06:52:06;;;;;;;25.17;12.97;;;;;;;-0.74;100.00;99822.56;10524510;28;20211;-80
2021/12/07 06:57:08;;;;;;;28.57;16.30;;;;;;;-0.70;100.00;99819.06;10551585;28;20280;-82
2021/12/07 07:02:10;;;;;;;27.60;14.80;;;;;;;-0.77;100.00;99825.84;10521321;28;20214;-82
2021/12/07 07:07:12;;;;;;;23.60;15.03;;;;;;;-0.71;100.00;99841.38;10542135;28;20252;-82
2021/12/07 07:12:15;;;;;;;30.17;16.40;;;;;;;-0.59;100.00;99844.81;10532947;28;20224;-82
2021/12/07 07:17:17;;;;;;;26.90;15.53;;;;;;;-0.66;100.00;99849.69;10502731;28;20268;-81
2021/12/07 07:22:19;;;;;;;31.73;16.20;;;;;;;-0.66;100.00;99857.97;10550004;28;20243;-82
2021/12/07 07:27:21;;;;;;;29.00;15.07;;;;;;;-0.65;100.00;99862.38;10528974;28;20226;-84
2021/12/07 07:32:24;;;;;;;24.13;14.57;;;;;;;-0.54;100.00;99883.47;10512815;28;20233;-84
2021/12/07 07:37:26;;;;;;;25.07;14.13;;;;;;;-0.44;100.00;99877.25;10553739;28;20218;-82
2021/12/07 07:42:28;;;;;;;21.83;14.67;;;;;;;-0.65;100.00;99889.97;10542119;28;20203;-81
2021/12/07 07:47:41;;;;;;;25.80;14.17;;;;;;;-0.67;100.00;99886.63;10503841;28;20259;-81
2021/12/07 07:52:43;;;;;;;22.83;14.03;;;;;;;-0.76;100.00;99872.47;10539816;28;20613;-81
2021/12/07 07:57:46;;;;;;;23.50;12.70;;;;;;;-0.72;100.00;99881.09;10518004;28;20275;-82
2021/12/07 08:02:48;;;;;;;27.80;13.60;;;;;;;-0.76;100.00;99874.41;10494940;28;20231;-82
2021/12/07 08:07:52;;;;;;;25.13;13.00;;;;;;;-0.70;100.00;99887.19;10533929;28;20250;-83
2021/12/07 08:12:59;;;;;;;22.23;12.27;;;;;;;-0.76;100.00;99888.19;10541279;28;20526;-82
2021/12/07 08:18:01;;;;;;;22.70;13.40;;;;;;;-0.69;100.00;99899.88;10528843;28;20843;-81
2021/12/07 08:23:05;;;;;;;25.30;12.87;;;;;;;-0.88;100.00;99912.31;10537756;28;20205;-83
2021/12/07 08:28:08;;;;;;;24.50;12.50;;;;;;;-0.77;100.00;99897.56;10541114;28;20609;-82
2021/12/07 08:33:10;;;;;;;22.67;13.27;;;;;;;-0.71;100.00;99904.81;10523838;28;20255;-84
2021/12/07 08:38:12;;;;;;;19.33;12.77;;;;;;;-0.68;100.00;99890.50;10495759;28;20684;-81
2021/12/07 08:43:14;;;;;;;22.33;12.77;;;;;;;-0.43;100.00;99895.47;10528192;28;20213;-81
2021/12/07 08:48:17;;;;;;;24.07;12.17;;;;;;;-0.76;100.00;99893.72;10515589;28;20202;-81
2021/12/07 08:53:22;;;;;;;21.33;12.53;;;;;;;-0.83;100.00;99893.09;10505508;28;20210;-81
2021/12/07 09:03:46;;;;;;;21.23;10.97;;;;;;;-0.36;100.00;99888.63;10539692;28;20226;-81
2021/12/07 09:08:48;;;;;;;17.30;9.73;;;;;;;-0.49;100.00;99891.81;10506143;28;20787;-81
2021/12/07 09:13:51;;;;;;;24.33;11.27;;;;;;;-0.30;100.00;99898.66;10524220;28;20290;-82
2021/12/07 09:18:53;;;;;;;18.43;9.87;;;;;;;-0.51;100.00;99901.44;10527457;28;20275;-81
2021/12/07 09:23:56;;;;;;;14.23;8.43;;;;;;;-0.23;100.00;99903.09;10521213;28;20607;-81
2021/12/07 09:28:58;;;;;;;19.70;9.07;;;;;;;-0.16;100.00;99920.31;10539951;28;20197;-83
2021/12/07 09:34:00;;;;;;;22.70;9.83;;;;;;;-0.20;100.00;99925.50;10486914;28;20207;-83
2021/12/07 09:39:05;;;;;;;18.10;9.00;;;;;;;-0.14;100.00;99923.63;10506809;28;20227;-83
2021/12/07 09:44:08;;;;;;;16.57;8.03;;;;;;;-0.18;100.00;99939.06;10515279;28;20195;-82
2021/12/07 09:49:11;;;;;;;17.50;9.13;;;;;;;-0.22;100.00;99940.66;10500577;28;20653;-82
2021/12/07 09:54:17;;;;;;;14.37;8.33;;;;;;;-0.15;100.00;99941.28;10523415;28;20206;-83
2021/12/07 09:59:20;;;;;;;16.07;9.20;;;;;;;-0.23;100.00;99936.22;10567886;28;20711;-84
2021/12/07 10:04:27;;;;;;;17.37;8.77;;;;;;;-0.03;100.00;99933.72;10540921;28;20287;-84
2021/12/07 10:09:29;;;;;;;18.70;8.33;;;;;;;0.03;100.00;99939.00;10507657;28;20495;-81
2021/12/07 10:14:40;;;;;;;20.13;7.93;;;;;;;0.05;100.00;99944.28;10523554;28;20528;-81
2021/12/07 10:19:45;;;;;;;13.23;7.70;;;;;;;0.09;100.00;99935.22;10521618;28;20284;-81
2021/12/07 10:24:54;;;;;;;17.47;8.10;;;;;;;0.21;99.50;99936.97;10520711;28;20200;-81
2021/12/07 10:29:56;;;;;;;16.20;7.33;;;;;;;0.29;98.84;99929.00;10510508;28;20660;-82
2021/12/07 10:34:58;;;;;;;17.83;7.03;;;;;;;0.22;98.52;99928.41;10538235;28;20199;-81
2021/12/07 10:40:01;;;;;;;13.87;6.73;;;;;;;0.20;98.93;99914.03;10546090;28;20634;-84
2021/12/07 10:45:08;;;;;;;11.03;6.90;;;;;;;0.27;98.97;99911.88;10536053;28;20729;-84
2021/12/07 10:50:15;;;;;;;16.80;7.47;;;;;;;-0.04;100.00;99918.25;10500699;28;20198;-80
2021/12/07 10:55:23;;;;;;;15.37;6.50;;;;;;;0.04;99.31;99915.00;10507945;28;20207;-81
2021/12/07 11:00:33;;;;;;;15.13;7.63;;;;;;;0.10;98.88;99898.19;10521276;28;20271;-84
2021/12/07 11:05:39;;;;;;;15.03;7.10;;;;;;;0.15;98.48;99900.16;10524341;28;20534;-82
2021/12/07 11:10:47;;;;;;;12.17;6.27;;;;;;;0.32;97.78;99889.81;10504248;28;20243;-83
2021/12/07 11:16:10;;;;;;;15.27;6.73;;;;;;;0.19;97.18;99890.25;10512597;28;20248;-82
2021/12/07 11:21:16;;;;;;;13.47;6.17;;;;;;;0.33;97.35;99872.13;10538798;28;20303;-81
2021/12/07 11:31:27;;;;;;;16.77;7.40;;;;;;;0.70;96.18;99868.50;10510092;28;20316;-81
2021/12/07 11:36:33;;;;;;;11.63;6.83;;;;;;;0.81;95.51;99859.13;10501777;28;20247;-81
2021/12/07 11:41:35;;;;;;;13.87;7.43;;;;;;;0.85;94.61;99854.75;10511880;28;20295;-82
2021/12/07 11:46:47;;;;;;;12.80;6.50;;;;;;;0.86;94.07;99844.53;10502427;28;20251;-83
2021/12/07 11:51:53;;;;;;;10.90;5.80;;;;;;;1.02;93.32;99836.00;10477101;28;20211;-81
2021/12/07 11:56:57;;;;;;;11.87;5.70;;;;;;;0.79;92.33;99828.16;10559828;28;20202;-80
2021/12/07 12:02:00;;;;;;;14.07;5.87;;;;;;;0.67;93.64;99824.78;10468236;28;20257;-80
2021/12/07 12:07:03;;;;;;;9.70;5.83;;;;;;;0.88;93.51;99814.66;10522469;28;20244;-79
2021/12/07 12:12:14;;;;;;;10.60;6.20;;;;;;;0.91;94.04;99822.41;10513300;28;20244;-80
2021/12/07 12:17:41;;;;;;;13.17;6.00;;;;;;;0.84;93.33;99830.97;10520568;28;20247;-80
2021/12/07 12:22:50;;;;;;;12.63;5.57;;;;;;;0.94;92.65;99827.38;10494868;28;20251;-79
2021/12/07 12:27:53;;;;;;;15.73;6.93;;;;;;;0.80;91.73;99824.28;10496025;28;20202;-80
2021/12/07 12:33:04;;;;;;;8.33;5.53;;;;;;;0.93;91.38;99815.50;10519315;28;20554;-81
2021/12/07 12:38:25;;;;;;;15.67;6.67;;;;;;;1.03;91.06;99818.28;10512891;28;20851;-81
2021/12/07 12:43:53;;;;;;;12.07;6.47;;;;;;;1.09;91.03;99822.75;10529818;28;20266;-79
2021/12/07 12:48:58;;;;;;;15.27;6.60;;;;;;;1.12;90.50;99807.56;10483339;28;20203;-79
2021/12/07 12:54:07;;;;;;;17.47;7.33;;;;;;;1.25;89.83;99815.34;10490368;28;20476;-81
2021/12/07 12:59:14;;;;;;;18.30;6.37;;;;;;;1.20;90.07;99795.94;10504803;28;20245;-80
2021/12/07 13:04:23;;;;;;;13.87;5.63;;;;;;;1.00;90.34;99782.06;10502201;28;20249;-80
2021/12/07 13:09:35;;;;;;;11.47;5.17;;;;;;;1.05;90.70;99785.66;10492547;28;20199;-80
2021/12/07 13:14:55;;;;;;;11.57;4.53;;;;;;;1.16;89.94;99779.03;10504519;28;20556;-79
2021/12/07 13:20:15;;;;;;;10.73;3.57;;;;;;;1.21;89.10;99760.81;10507112;28;20307;-80
2021/12/07 13:25:26;;;;;;;9.63;3.67;;;;;;;1.31;88.39;99753.34;10511099;28;20243;-82
2021/12/07 13:31:02;;;;;;;11.93;3.43;;;;;;;1.14;88.86;99748.06;10495212;28;20206;-80
2021/12/07 13:36:42;;;;;;;9.57;2.80;;;;;;;1.00;89.10;99744.19;10498925;28;20593;-80
2021/12/07 13:41:49;;;;;;;10.47;2.67;;;;;;;1.02;88.69;99733.66;10501640;28;20626;-80
2021/12/07 13:46:54;;;;;;;7.20;2.37;;;;;;;1.23;87.76;99722.63;10514990;28;20231;-82
2021/12/07 13:51:56;;;;;;;9.57;2.23;;;;;;;0.88;87.58;99715.13;10520007;28;20199;-80
2021/12/07 13:56:58;;;;;;;9.00;2.83;;;;;;;0.77;87.86;99706.78;10534571;28;20210;-81
2021/12/07 14:02:00;;;;;;;8.23;2.17;;;;;;;0.71;87.93;99701.53;10525006;28;20272;-81
2021/12/07 14:07:03;;;;;;;8.60;1.73;;;;;;;0.80;87.27;99691.56;10509070;28;20256;-80
2021/12/07 14:12:05;;;;;;;6.93;1.47;;;;;;;0.64;87.40;99681.56;10513178;28;20203;-79
2021/12/07 14:17:07;;;;;;;7.20;1.60;;;;;;;0.91;86.48;99668.38;10495550;28;20202;-80
2021/12/07 14:22:10;;;;;;;7.87;1.73;;;;;;;0.51;88.45;99674.63;10508962;28;20238;-80
2021/12/07 14:27:12;;;;;;;5.77;1.43;;;;;;;0.46;88.91;99671.88;10510242;28;20594;-80
2021/12/07 14:32:14;;;;;;;5.30;1.80;;;;;;;0.38;88.15;99659.41;10526049;28;20552;-81
2021/12/07 14:37:17;;;;;;;5.33;1.73;;;;;;;0.33;88.63;99648.34;10493117;28;20218;-80
2021/12/07 14:42:19;;;;;;;6.00;1.73;;;;;;;0.34;89.14;99638.97;10493024;28;20226;-81
2021/12/07 14:47:21;;;;;;;6.63;2.13;;;;;;;0.62;87.50;99621.03;10498928;28;20202;-82
2021/12/07 14:52:29;;;;;;;4.57;2.00;;;;;;;0.53;86.84;99619.09;10525163;28;20198;-81
2021/12/07 14:57:32;;;;;;;4.90;1.37;;;;;;;0.35;85.73;99614.94;10503094;28;20207;-81
2021/12/07 15:02:37;;;;;;;4.43;1.07;;;;;;;0.33;85.87;99606.91;10510452;28;20222;-81
2021/12/07 15:07:41;;;;;;;3.70;1.47;;;;;;;0.39;84.92;99591.16;10529669;28;20230;-83
2021/12/07 15:12:45;;;;;;;4.80;1.20;;;;;;;0.29;84.67;99599.41;10492266;28;20219;-82
2021/12/07 15:17:47;;;;;;;4.10;1.23;;;;;;;0.04;86.03;99594.66;10508520;28;20604;-82
2021/12/07 15:22:51;;;;;;;7.03;1.10;;;;;;;-0.06;86.00;99589.94;10508621;28;20199;-81
2021/12/07 15:27:54;;;;;;;4.13;1.33;;;;;;;0.17;85.96;99588.63;10506533;28;20575;-81
2021/12/07 15:32:56;;;;;;;5.97;1.47;;;;;;;0.12;85.79;99574.78;10518352;28;20199;-83
2021/12/07 15:37:58;;;;;;;5.67;1.90;;;;;;;0.06;84.59;99564.84;10531787;28;20242;-82
2021/12/07 15:43:01;;;;;;;5.13;1.43;;;;;;;-0.00;86.00;99546.59;10506192;28;20253;-84
2021/12/07 15:48:03;;;;;;;5.57;1.20;;;;;;;0.16;84.25;99537.25;10510514;28;20207;-84
2021/12/07 15:53:10;;;;;;;7.47;1.20;;;;;;;-0.32;86.29;99536.53;10492394;28;20244;-81
2021/12/07 15:58:14;;;;;;;5.33;1.67;;;;;;;-0.17;86.40;99526.63;10486688;28;20246;-82
2021/12/07 16:03:20;;;;;;;6.60;1.17;;;;;;;-0.27;85.96;99489.59;10511508;28;20577;-83
2021/12/07 16:08:27;;;;;;;2.80;1.13;;;;;;;-0.18;85.86;99489.09;10519457;28;20225;-83
2021/12/07 16:13:35;;;;;;;4.63;1.23;;;;;;;-0.23;85.26;99489.06;10535321;28;20295;-81
2021/12/07 16:18:37;;;;;;;3.20;1.13;;;;;;;-0.19;84.81;99479.16;10499480;28;20291;-81
2021/12/07 16:23:43;;;;;;;4.10;0.90;;;;;;;-0.18;84.45;99470.59;10507616;28;20267;-81
2021/12/07 16:28:48;;;;;;;4.03;0.93;;;;;;;-0.39;84.62;99477.13;10490394;28;20238;-80
2021/12/07 16:33:53;;;;;;;5.27;1.20;;;;;;;-0.46;84.68;99458.09;10497404;28;20261;-82
2021/12/07 16:38:59;;;;;;;3.43;0.87;;;;;;;-0.47;84.71;99456.44;10475234;28;20254;-80
2021/12/07 16:44:03;;;;;;;4.97;1.27;;;;;;;-0.36;84.53;99451.78;10518347;28;20233;-81
2021/12/07 16:49:06;;;;;;;6.80;0.90;;;;;;;-0.50;84.10;99436.81;10497930;28;20352;-81
2021/12/07 16:54:08;;;;;;;5.67;1.10;;;;;;;-0.45;84.39;99432.16;10483715;28;20237;-80
2021/12/07 16:59:11;;;;;;;4.33;1.00;;;;;;;-0.35;83.58;99425.84;10484884;28;20311;-80
2021/12/07 17:04:13;;;;;;;4.27;0.77;;;;;;;-0.41;83.47;99416.69;10503171;28;20271;-80
2021/12/07 17:09:17;;;;;;;5.70;0.60;;;;;;;-0.42;83.09;99415.03;10501591;28;20283;-79
2021/12/07 17:14:19;;;;;;;2.17;0.90;;;;;;;-0.35;82.82;99388.03;10506087;28;20323;-78
2021/12/07 17:19:24;;;;;;;6.70;1.60;;;;;;;-0.31;82.20;99361.56;10494598;28;20495;-79
2021/12/07 17:24:26;;;;;;;5.60;0.90;;;;;;;-0.51;82.46;99367.03;10497924;28;20617;-80
2021/12/07 17:29:28;;;;;;;6.03;1.20;;;;;;;-0.33;82.56;99351.88;10525439;28;20649;-79
2021/12/07 17:34:31;;;;;;;3.80;0.93;;;;;;;-0.39;82.24;99351.03;10511303;28;20603;-80
2021/12/07 17:39:34;;;;;;;5.30;1.00;;;;;;;-0.34;81.35;99340.03;10488838;28;20591;-80
2021/12/07 17:44:36;;;;;;;3.37;0.97;;;;;;;-0.15;80.20;99331.19;10486960;28;20238;-79
2021/12/07 17:49:38;;;;;;;6.33;0.83;;;;;;;-0.30;80.96;99309.94;10522302;28;20291;-79
2021/12/07 17:54:43;;;;;;;5.07;1.23;;;;;;;-0.31;80.73;99284.28;10517863;28;20222;-80
2021/12/07 17:59:45;;;;;;;6.37;0.90;;;;;;;-0.20;80.26;99265.78;10498689;28;20571;-79
2021/12/07 18:04:47;;;;;;;3.90;0.80;;;;;;;-0.36;80.76;99258.59;10513130;28;20601;-81
2021/12/07 18:09:49;;;;;;;5.63;0.63;;;;;;;-0.31;80.35;99244.81;10519951;28;20600;-80
2021/12/07 18:14:52;;;;;;;4.13;1.23;;;;;;;-0.58;81.18;99236.81;10527085;28;20250;-80
2021/12/07 18:19:54;;;;;;;2.07;0.97;;;;;;;-0.58;80.85;99220.28;10524843;28;20241;-78
2021/12/07 18:24:57;;;;;;;2.57;0.83;;;;;;;-0.38;79.20;99198.19;10533417;28;20230;-81
2021/12/07 18:30:10;;;;;;;5.87;1.20;;;;;;;-0.37;80.13;99193.50;10525047;28;20227;-80
2021/12/07 18:35:14;;;;;;;6.67;1.00;;;;;;;-0.22;79.77;99187.94;10506885;28;20234;-81
2021/12/07 18:40:17;;;;;;;3.97;0.60;;;;;;;-0.41;79.88;99176.66;10498168;28;20595;-82
2021/12/07 18:45:19;;;;;;;5.13;1.40;;;;;;;-0.30;79.53;99149.91;10496265;28;20234;-82
2021/12/07 18:50:22;;;;;;;4.57;1.00;;;;;;;-0.27;79.64;99130.00;10495099;28;20230;-80
2021/12/07 18:55:25;;;;;;;1.50;0.97;;;;;;;0.09;78.25;99109.50;10503324;28;20230;-82
2021/12/07 19:00:30;;;;;;;2.93;0.60;;;;;;;-0.23;79.86;99105.44;10503427;28;20522;-82
2021/12/07 19:05:33;;;;;;;3.93;0.87;;;;;;;-0.27;79.82;99083.06;10523170;28;20257;-82
2021/12/07 19:10:38;;;;;;;2.23;0.80;;;;;;;-0.19;80.15;99060.44;10512543;28;20227;-82
2021/12/07 19:15:41;;;;;;;2.20;1.10;;;;;;;-0.14;79.92;99046.59;10507212;28;21001;-82
2021/12/07 19:20:48;;;;;;;4.27;0.70;;;;;;;0.02;79.41;99044.63;10525536;28;20258;-83
2021/12/07 19:25:50;;;;;;;2.63;1.00;;;;;;;0.11;79.71;99009.78;10516343;28;20223;-83
2021/12/07 19:30:55;;;;;;;3.97;0.97;;;;;;;0.07;79.74;99019.75;10473432;28;20300;-81
2021/12/07 19:35:57;;;;;;;3.17;1.17;;;;;;;0.26;78.95;99006.91;10481810;28;20363;-81
2021/12/07 19:41:06;;;;;;;1.80;0.83;;;;;;;0.33;79.15;99007.44;10497937;28;20307;-81
2021/12/07 19:46:08;;;;;;;2.90;0.70;;;;;;;0.15;79.32;98988.78;10518362;28;20674;-84
2021/12/07 19:51:14;;;;;;;3.47;0.77;;;;;;;0.51;78.48;98964.44;10509019;28;20618;-81
2021/12/07 19:56:19;;;;;;;4.07;1.03;;;;;;;0.63;77.94;98964.91;10512745;28;21753;-84
2021/12/07 20:01:24;;;;;;;4.13;0.90;;;;;;;0.66;77.50;98944.97;10504627;28;20287;-81
2021/12/07 20:06:29;;;;;;;17.47;7.20;;;;;;;1.07;76.19;98931.56;10501010;28;20233;-82
2021/12/07 20:11:36;;;;;;;9.47;1.10;;;;;;;0.74;77.40;98919.50;10510911;28;20271;-82
2021/12/07 20:16:39;;;;;;;5.07;0.90;;;;;;;0.82;76.91;98905.03;10499083;28;20665;-83
2021/12/07 20:21:42;;;;;;;2.03;1.00;;;;;;;0.73;77.29;98890.19;10530016;28;20246;-83
2021/12/07 20:26:44;;;;;;;3.10;0.80;;;;;;;0.76;77.22;98867.47;10495838;28;20611;-81
2021/12/07 20:31:53;;;;;;;3.43;0.60;;;;;;;0.69;76.42;98841.31;10523511;28;20754;-82
2021/12/07 20:36:58;;;;;;;4.83;1.17;;;;;;;0.40;78.22;98828.34;10516063;28;20230;-82
2021/12/07 20:42:00;;;;;;;2.37;0.87;;;;;;;0.73;77.26;98828.56;10508039;28;20287;-83
2021/12/07 20:47:08;;;;;;;2.77;1.03;;;;;;;1.01;75.64;98804.72;10515139;28;20826;-82
2021/12/07 20:52:10;;;;;;;3.00;0.70;;;;;;;0.87;75.94;98762.34;10478192;28;20932;-83
2021/12/07 20:57:12;;;;;;;2.83;1.17;;;;;;;0.78;76.60;98753.84;10505117;28;20233;-82
2021/12/07 21:02:15;;;;;;;4.93;1.27;;;;;;;0.98;75.54;98747.25;10501039;28;20940;-82
2021/12/07 21:07:17;;;;;;;1.57;0.80;;;;;;;0.95;76.19;98748.66;10493776;28;20785;-81
2021/12/07 21:12:20;;;;;;;1.03;0.80;;;;;;;0.78;76.48;98727.03;10525386;28;20198;-82
2021/12/07 21:17:22;;;;;;;2.97;0.80;;;;;;;0.61;76.21;98717.63;10516764;28;20243;-83
2021/12/07 21:22:25;;;;;;;4.67;1.30;;;;;;;0.82;75.15;98707.94;10487039;28;20712;-83
2021/12/07 21:27:27;;;;;;;1.50;0.97;;;;;;;0.62;76.59;98713.75;10499105;28;20226;-83
2021/12/07 21:32:29;;;;;;;2.47;1.00;;;;;;;0.68;75.74;98695.94;10482650;28;20740;-82
2021/12/07 21:37:37;;;;;;;2.37;1.00;;;;;;;0.63;76.03;98702.34;10467810;28;20226;-83
2021/12/07 21:42:42;;;;;;;4.43;1.23;;;;;;;0.77;75.49;98702.44;10495318;28;20253;-81
2021/12/07 21:47:44;;;;;;;2.87;0.80;;;;;;;0.95;74.80;98682.31;10488794;28;20210;-82
2021/12/07 21:52:47;;;;;;;3.03;0.70;;;;;;;0.71;74.15;98678.78;10489960;28;20231;-82
2021/12/07 21:57:50;;;;;;;4.73;0.93;;;;;;;0.93;73.51;98678.19;10505312;28;20611;-82
2021/12/07 22:02:53;;;;;;;1.73;0.70;;;;;;;0.88;73.30;98665.25;10493715;28;20255;-82
2021/12/07 22:07:55;;;;;;;2.83;1.07;;;;;;;1.00;72.29;98667.59;10516367;28;20287;-83
2021/12/07 22:12:57;;;;;;;3.53;1.00;;;;;;;1.26;71.46;98645.88;10487004;28;20561;-81
2021/12/07 22:18:00;;;;;;;7.90;3.00;;;;;;;1.12;71.89;98643.06;10519176;28;20194;-82
2021/12/07 22:23:02;;;;;;;26.43;10.87;;;;;;;0.99;71.31;98641.88;10491805;28;20303;-82
2021/12/07 22:28:06;;;;;;;5.10;1.00;;;;;;;1.17;70.73;98627.19;10494268;28;20210;-83
2021/12/07 22:33:09;;;;;;;3.00;1.03;;;;;;;1.04;70.76;98618.84;10522145;28;20224;-82
2021/12/07 22:38:11;;;;;;;1.53;0.70;;;;;;;1.18;70.05;98626.06;10510492;28;20202;-84
2021/12/07 22:43:14;;;;;;;3.20;0.77;;;;;;;1.09;70.72;98625.13;10519716;28;20630;-82
2021/12/07 22:48:17;;;;;;;0.93;0.37;;;;;;;1.06;71.13;98617.41;10529163;28;20206;-81
2021/12/07 22:53:20;;;;;;;2.53;1.00;;;;;;;1.22;70.93;98604.16;10508919;28;20602;-84
2021/12/07 22:58:22;;;;;;;3.00;0.70;;;;;;;0.97;74.12;98574.19;10520731;28;20252;-82
2021/12/07 23:03:26;;;;;;;3.00;0.80;;;;;;;0.34;79.71;98575.41;10515945;28;20275;-81
2021/12/07 23:08:28;;;;;;;2.60;0.60;;;;;;;0.24;82.09;98563.66;10504853;28;20203;-84
2021/12/07 23:13:32;;;;;;;3.20;0.77;;;;;;;0.39;83.75;98514.56;10502047;28;20222;-81
2021/12/07 23:18:35;;;;;;;2.67;0.67;;;;;;;0.12;84.83;98517.16;10503383;28;20260;-82
2021/12/07 23:23:39;;;;;;;2.20;0.50;;;;;;;0.09;85.96;98499.28;10531609;28;20245;-82
2021/12/07 23:28:43;;;;;;;3.10;0.90;;;;;;;0.23;85.78;98474.47;10518219;28;20225;-81
2021/12/07 23:33:46;;;;;;;2.77;0.50;;;;;;;0.21;85.97;98465.69;10521109;28;20202;-78
2021/12/07 23:38:52;;;;;;;1.53;0.40;;;;;;;0.04;86.44;98462.63;10504593;28;20502;-82
2021/12/07 23:43:55;;;;;;;4.70;0.67;;;;;;;0.30;86.09;98441.78;10535293;28;20296;-82
2021/12/07 23:48:58;;;;;;;3.20;1.20;;;;;;;0.51;86.41;98438.69;10520800;28;20194;-81
2021/12/07 23:54:01;;;;;;;3.07;0.70;;;;;;;0.29;86.87;98431.84;10502401;28;20591;-81
2021/12/07 23:59:03;;;;;;;3.80;0.60;;;;;;;0.64;86.40;98430.44;10518125;28;20252;-80
